createdAt,value
2018-11-27T00:01:25.736Z,27.15
2018-11-27T00:03:55.651Z,27.13
2018-11-27T00:06:25.933Z,26.75
2018-11-27T00:08:56.004Z,26.87
2018-11-27T00:11:27.637Z,28.90
2018-11-27T00:13:57.647Z,25.00
2018-11-27T00:16:27.718Z,26.30
2018-11-27T00:18:57.776Z,27.32
2018-11-27T00:21:27.795Z,28.45
2018-11-27T00:23:58.090Z,27.52
2018-11-27T00:26:28.151Z,27.42
2018-11-27T00:28:58.118Z,28.23
2018-11-27T00:31:28.042Z,28.12
2018-11-27T00:33:58.062Z,26.30
2018-11-27T00:36:28.302Z,27.73
2018-11-27T00:38:58.621Z,27.70
2018-11-27T00:41:29.276Z,23.75
2018-11-27T00:43:59.275Z,27.35
2018-11-27T00:46:29.449Z,26.50
2018-11-27T00:49:00.392Z,28.62
2018-11-27T00:51:30.422Z,27.37
2018-11-27T00:54:00.615Z,26.60
2018-11-27T00:56:30.694Z,25.27
2018-11-27T00:59:01.405Z,26.20
2018-11-27T01:01:32.147Z,28.05
2018-11-27T01:04:02.066Z,27.07
2018-11-27T01:06:32.859Z,24.95
2018-11-27T01:09:02.935Z,25.50
2018-11-27T01:11:32.907Z,28.75
2018-11-27T01:14:03.014Z,27.52
2018-11-27T01:16:33.570Z,27.98
2018-11-27T01:19:03.575Z,27.27
2018-11-27T01:21:34.287Z,24.87
2018-11-27T01:24:04.235Z,24.52
2018-11-27T01:26:35.470Z,25.82
2018-11-27T01:29:05.441Z,26.73
2018-11-27T01:31:36.178Z,26.57
2018-11-27T01:34:06.661Z,28.00
2018-11-27T01:36:36.664Z,27.87
2018-11-27T01:39:08.690Z,29.75
2018-11-27T01:41:39.213Z,27.95
2018-11-27T01:44:09.827Z,25.65
2018-11-27T01:46:40.238Z,26.75
2018-11-27T01:49:10.820Z,26.42
2018-11-27T01:51:41.227Z,26.27
2018-11-27T01:54:11.377Z,27.17
2018-11-27T01:56:41.351Z,28.65
2018-11-27T01:59:11.285Z,26.85
2018-11-27T02:01:41.252Z,27.10
2018-11-27T02:04:11.471Z,26.17
2018-11-27T02:06:41.435Z,27.17
2018-11-27T02:09:29.304Z,26.12
2018-11-27T02:11:59.461Z,27.00
2018-11-27T02:15:05.047Z,26.35
2018-11-27T02:17:35.227Z,25.88
2018-11-27T02:20:05.481Z,27.60
2018-11-27T02:22:35.446Z,27.75
2018-11-27T02:25:21.508Z,27.48
2018-11-27T02:27:51.503Z,26.85
2018-11-27T02:37:22.296Z,28.75
2018-11-27T02:39:52.310Z,27.37
2018-11-27T02:43:37.767Z,28.62
2018-11-27T02:46:51.264Z,27.13
2018-11-27T02:49:24.781Z,26.37
2018-11-27T02:52:57.578Z,27.40
2018-11-27T02:55:27.673Z,28.05
2018-11-27T03:01:07.122Z,27.60
2018-11-27T03:04:26.640Z,28.27
2018-11-27T03:07:44.504Z,27.50
2018-11-27T03:10:16.385Z,29.10
2018-11-27T03:12:46.326Z,28.90
2018-11-27T03:15:55.770Z,27.82
2018-11-27T03:18:25.707Z,24.92
2018-11-27T03:20:55.638Z,29.12
2018-11-27T03:23:27.518Z,27.95
2018-11-27T03:25:57.561Z,26.62
2018-11-27T03:28:27.576Z,26.65
2018-11-27T03:30:57.583Z,27.20
2018-11-27T03:33:27.590Z,27.58
2018-11-27T03:36:25.916Z,25.95
2018-11-27T03:39:09.672Z,25.57
2018-11-27T03:41:39.944Z,25.00
2018-11-27T03:44:09.897Z,28.92
2018-11-27T03:46:41.190Z,25.80
2018-11-27T03:49:39.734Z,28.02
2018-11-27T03:52:09.859Z,26.48
2018-11-27T03:54:39.981Z,27.62
2018-11-27T03:57:11.081Z,26.48
2018-11-27T03:59:41.904Z,25.00
2018-11-27T04:02:12.433Z,25.72
2018-11-27T04:04:42.935Z,24.23
2018-11-27T04:07:13.318Z,25.15
2018-11-27T04:09:43.319Z,25.75
2018-11-27T04:12:13.753Z,23.30
2018-11-27T04:14:43.731Z,25.62
2018-11-27T04:17:13.743Z,26.62
2018-11-27T04:19:44.734Z,25.40
2018-11-27T04:22:14.703Z,24.75
2018-11-27T04:24:44.949Z,23.87
2018-11-27T04:27:15.740Z,25.75
2018-11-27T04:29:45.699Z,24.57
2018-11-27T04:32:15.689Z,27.75
2018-11-27T04:34:46.173Z,28.15
2018-11-27T04:37:16.788Z,24.52
2018-11-27T04:39:46.978Z,27.05
2018-11-27T04:42:17.148Z,29.37
2018-11-27T04:44:47.373Z,28.27
2018-11-27T04:47:17.403Z,26.52
2018-11-27T04:49:47.652Z,27.85
2018-11-27T04:52:18.400Z,28.47
2018-11-27T04:54:48.382Z,26.42
2018-11-27T04:57:19.169Z,27.85
2018-11-27T04:59:49.356Z,27.98
2018-11-27T05:02:19.793Z,26.73
2018-11-27T05:04:50.275Z,24.98
2018-11-27T05:07:21.299Z,27.65
2018-11-27T05:09:51.267Z,27.95
2018-11-27T05:12:21.301Z,26.80
2018-11-27T05:14:51.477Z,26.37
2018-11-27T05:17:21.412Z,28.40
2018-11-27T05:19:51.415Z,29.18
2018-11-27T05:22:21.635Z,28.80
2018-11-27T05:24:51.609Z,28.62
2018-11-27T05:27:21.582Z,28.85
2018-11-27T05:29:51.590Z,28.02
2018-11-27T05:32:21.593Z,29.30
2018-11-27T05:34:51.752Z,26.93
2018-11-27T05:37:22.103Z,27.90
2018-11-27T05:39:52.256Z,26.85
2018-11-27T05:42:22.562Z,26.73
2018-11-27T05:44:52.516Z,27.62
2018-11-27T05:47:22.477Z,27.45
2018-11-27T05:49:53.474Z,28.65
2018-11-27T05:52:23.577Z,25.32
2018-11-27T05:54:53.708Z,26.35
2018-11-27T05:57:23.657Z,26.62
2018-11-27T05:59:53.630Z,26.48
2018-11-27T06:02:23.895Z,24.95
2018-11-27T06:04:55.705Z,28.50
2018-11-27T06:13:57.683Z,26.15
2018-11-27T06:16:27.837Z,27.17
2018-11-27T06:19:01.495Z,26.70
2018-11-27T06:21:34.460Z,27.17
2018-11-27T06:24:04.545Z,26.48
2018-11-27T06:26:34.518Z,25.25
2018-11-27T06:29:08.585Z,27.82
2018-11-27T06:31:38.569Z,27.48
2018-11-27T06:34:13.591Z,26.37
2018-11-27T06:36:45.290Z,25.00
2018-11-27T06:39:15.325Z,25.23
2018-11-27T06:41:45.349Z,25.77
2018-11-27T06:44:15.417Z,25.00
2018-11-27T06:46:45.436Z,25.90
2018-11-27T06:49:15.410Z,27.60
2018-11-27T06:51:45.384Z,24.15
2018-11-27T06:54:15.384Z,24.60
2018-11-27T06:56:45.596Z,25.75
2018-11-27T06:59:15.859Z,27.07
2018-11-27T07:01:45.842Z,25.57
2018-11-27T07:04:15.869Z,23.42
2018-11-27T07:06:46.232Z,25.80
2018-11-27T07:09:16.244Z,26.55
2018-11-27T07:11:46.346Z,23.57
2018-11-27T07:14:16.508Z,24.67
2018-11-27T07:16:46.565Z,25.23
2018-11-27T07:19:16.533Z,24.98
2018-11-27T07:21:46.827Z,25.50
2018-11-27T07:24:16.827Z,26.68
2018-11-27T07:26:46.794Z,24.55
2018-11-27T07:29:16.773Z,25.82
2018-11-27T07:31:47.145Z,25.25
2018-11-27T07:34:17.173Z,25.08
2018-11-27T07:36:47.151Z,25.68
2018-11-27T07:39:17.151Z,27.10
2018-11-27T07:41:47.212Z,25.23
2018-11-27T07:44:17.245Z,25.20
2018-11-27T07:46:47.313Z,24.18
2018-11-27T07:49:17.934Z,24.18
2018-11-27T07:51:48.355Z,25.02
2018-11-27T07:54:18.494Z,25.62
2018-11-27T07:56:48.450Z,25.95
2018-11-27T07:59:18.614Z,27.42
2018-11-27T08:01:48.608Z,23.77
2018-11-27T08:04:18.970Z,24.27
2018-11-27T08:06:48.975Z,25.35
2018-11-27T08:09:19.325Z,24.18
2018-11-27T08:11:49.402Z,24.63
2018-11-27T08:14:19.500Z,26.33
2018-11-27T08:16:49.670Z,25.85
2018-11-27T08:19:19.764Z,25.48
2018-11-27T08:21:49.989Z,23.65
2018-11-27T08:24:20.088Z,27.40
2018-11-27T08:26:50.256Z,26.90
2018-11-27T08:29:20.219Z,25.30
2018-11-27T08:31:50.637Z,26.80
2018-11-27T08:34:20.672Z,24.60
2018-11-27T08:36:50.757Z,23.95
2018-11-27T08:39:21.026Z,24.65
2018-11-27T08:41:51.042Z,26.20
2018-11-27T08:44:21.143Z,24.30
2018-11-27T08:46:51.155Z,25.37
2018-11-27T08:49:21.242Z,25.25
2018-11-27T08:51:51.398Z,26.50
2018-11-27T08:54:21.499Z,25.05
2018-11-27T08:56:51.488Z,24.82
2018-11-27T08:59:21.515Z,26.05
2018-11-27T09:01:51.507Z,27.52
2018-11-27T09:04:21.854Z,23.73
2018-11-27T09:06:51.937Z,24.82
2018-11-27T09:09:21.971Z,24.65
2018-11-27T09:11:52.224Z,25.48
2018-11-27T09:14:22.463Z,26.23
2018-11-27T09:16:52.462Z,23.67
2018-11-27T09:19:22.749Z,23.07
2018-11-27T09:21:52.813Z,22.20
2018-11-27T09:24:23.311Z,21.87
2018-11-27T09:26:53.351Z,22.05
2018-11-27T09:29:24.727Z,23.00
2018-11-27T09:31:53.796Z,23.98
2018-11-27T09:34:23.928Z,22.67
2018-11-27T09:36:54.352Z,24.35
2018-11-27T09:39:24.383Z,23.62
2018-11-27T09:41:54.748Z,24.90
2018-11-27T09:44:25.479Z,22.45
2018-11-27T09:46:55.503Z,22.35
2018-11-27T09:49:26.882Z,21.62
2018-11-27T09:51:56.978Z,21.48
2018-11-27T09:54:27.246Z,24.35
2018-11-27T09:57:28.094Z,21.90
2018-11-27T09:59:58.128Z,22.75
2018-11-27T10:02:30.363Z,23.60
2018-11-27T10:05:00.453Z,20.70
2018-11-27T10:07:30.396Z,20.25
2018-11-27T10:10:00.564Z,21.45
2018-11-27T10:12:36.812Z,22.48
2018-11-27T10:15:20.419Z,20.10
2018-11-27T10:17:54.108Z,20.12
2018-11-27T10:20:26.815Z,21.95
2018-11-27T10:23:02.732Z,20.45
2018-11-27T10:25:32.834Z,20.25
2018-11-27T10:28:05.938Z,23.18
2018-11-27T10:30:35.911Z,21.42
2018-11-27T10:33:12.310Z,21.50
2018-11-27T10:35:57.668Z,20.35
2018-11-27T10:38:27.732Z,20.77
2018-11-27T10:40:57.835Z,20.80
2018-11-27T10:43:30.515Z,20.60
2018-11-27T10:46:00.569Z,22.90
2018-11-27T10:48:30.570Z,22.17
2018-11-27T10:51:00.566Z,20.85
2018-11-27T10:53:30.503Z,19.57
2018-11-27T10:56:00.470Z,18.30
2018-11-27T10:58:30.564Z,18.32
2018-11-27T11:01:05.675Z,17.98
2018-11-27T11:03:36.487Z,18.70
2018-11-27T11:06:08.217Z,18.02
2018-11-27T11:08:38.213Z,19.15
2018-11-27T11:11:20.320Z,18.17
2018-11-27T11:13:50.534Z,17.70
2018-11-27T11:16:20.576Z,19.73
2018-11-27T11:18:50.644Z,17.75
2018-11-27T11:21:20.688Z,18.62
2018-11-27T11:24:13.413Z,18.95
2018-11-27T11:26:57.897Z,19.07
2018-11-27T11:29:39.389Z,19.52
2018-11-27T11:32:09.361Z,21.27
2018-11-27T11:34:39.616Z,19.30
2018-11-27T11:37:09.594Z,19.23
2018-11-27T11:39:57.697Z,17.95
2018-11-27T11:42:28.038Z,20.55
2018-11-27T11:44:58.101Z,20.10
2018-11-27T11:47:50.230Z,18.57
2018-11-27T11:50:24.831Z,17.62
2018-11-27T11:53:26.900Z,14.38
2018-11-27T11:56:20.964Z,14.90
2018-11-27T11:58:50.945Z,14.73
2018-11-27T12:01:21.031Z,15.20
2018-11-27T12:03:52.288Z,14.20
2018-11-27T12:06:53.915Z,15.08
2018-11-27T12:09:24.168Z,12.20
2018-11-27T12:11:54.287Z,13.40
2018-11-27T12:14:24.555Z,12.63
2018-11-27T12:16:54.914Z,12.88
2018-11-27T12:19:24.986Z,13.60
2018-11-27T12:21:55.031Z,14.68
2018-11-27T12:27:35.126Z,14.10
2018-11-27T12:30:08.805Z,13.13
2018-11-27T12:32:39.097Z,13.85
2018-11-27T12:35:16.352Z,15.45
2018-11-27T12:38:02.863Z,13.80
2018-11-27T12:40:46.077Z,14.83
2018-11-27T12:43:16.262Z,15.08
2018-11-27T12:45:46.545Z,15.25
2018-11-27T12:48:17.066Z,15.00
2018-11-27T12:53:52.344Z,14.95
2018-11-27T12:56:22.534Z,15.05
2018-11-27T12:58:52.687Z,14.50
2018-11-27T13:01:22.792Z,15.90
2018-11-27T13:04:05.658Z,14.20
2018-11-27T13:06:37.029Z,14.83
2018-11-27T13:09:11.440Z,15.88
2018-11-27T13:11:42.487Z,13.70
2018-11-27T13:14:12.632Z,15.55
2018-11-27T13:16:44.312Z,15.03
2018-11-27T13:19:14.615Z,14.38
2018-11-27T13:21:44.936Z,15.08
2018-11-27T13:24:15.077Z,15.00
2018-11-27T13:26:45.076Z,14.33
2018-11-27T13:29:18.287Z,13.00
2018-11-27T13:31:48.330Z,13.60
2018-11-27T13:34:18.439Z,12.35
2018-11-27T13:36:48.625Z,13.05
2018-11-27T13:39:41.560Z,12.60
2018-11-27T13:42:11.518Z,12.50
2018-11-27T13:44:41.682Z,13.25
2018-11-27T13:47:11.793Z,11.40
2018-11-27T13:49:41.852Z,13.08
2018-11-27T13:52:40.227Z,14.00
2018-11-27T13:55:21.236Z,12.20
2018-11-27T13:57:51.396Z,13.15
2018-11-27T14:00:21.951Z,13.10
2018-11-27T14:02:57.764Z,11.95
2018-11-27T14:05:28.081Z,12.20
2018-11-27T14:07:58.393Z,11.95
2018-11-27T14:10:28.503Z,14.28
2018-11-27T14:12:58.827Z,13.40
2018-11-27T14:15:29.157Z,12.80
2018-11-27T14:18:02.482Z,11.90
2018-11-27T14:20:32.899Z,13.62
2018-11-27T14:23:04.610Z,12.75
2018-11-27T14:25:34.693Z,12.88
2018-11-27T14:28:21.803Z,12.58
2018-11-27T14:30:50.978Z,12.25
2018-11-27T14:33:20.983Z,13.53
2018-11-27T14:35:50.985Z,11.95
2018-11-27T14:38:20.924Z,11.90
2018-11-27T14:40:51.127Z,11.80
2018-11-27T14:43:21.297Z,9.88
2018-11-27T14:45:51.302Z,11.15
2018-11-27T14:48:21.388Z,9.85
2018-11-27T14:50:51.494Z,8.90
2018-11-27T14:53:21.589Z,10.48
2018-11-27T14:55:52.176Z,10.20
2018-11-27T14:58:22.191Z,10.40
2018-11-27T15:00:52.354Z,10.80
2018-11-27T15:03:22.361Z,10.18
2018-11-27T15:05:52.361Z,10.93
2018-11-27T15:08:22.342Z,11.00
2018-11-27T15:10:52.642Z,11.55
2018-11-27T15:13:22.638Z,11.25
2018-11-27T15:15:52.586Z,11.70
2018-11-27T15:18:22.756Z,9.95
2018-11-27T15:20:52.853Z,10.25
2018-11-27T15:23:22.869Z,10.50
2018-11-27T15:25:52.826Z,10.43
2018-11-27T15:28:23.175Z,9.93
2018-11-27T15:30:53.863Z,10.18
2018-11-27T15:33:29.752Z,11.10
2018-11-27T15:35:59.753Z,11.18
2018-11-27T15:38:29.940Z,11.33
2018-11-27T15:41:04.844Z,10.38
2018-11-27T15:43:34.779Z,10.80
2018-11-27T15:46:04.874Z,10.88
2018-11-27T15:48:34.758Z,10.18
2018-11-27T15:51:04.861Z,11.40
2018-11-27T15:53:34.872Z,9.73
2018-11-27T15:56:04.888Z,11.97
2018-11-27T15:58:34.886Z,10.45
2018-11-27T16:01:05.534Z,11.10
2018-11-27T16:03:35.689Z,11.33
2018-11-27T16:06:10.723Z,13.05
2018-11-27T16:08:41.110Z,10.32
2018-11-27T16:11:11.237Z,11.57
2018-11-27T16:13:44.947Z,10.55
2018-11-27T16:16:15.558Z,11.78
2018-11-27T16:18:46.378Z,12.05
2018-11-27T16:21:16.524Z,11.75
2018-11-27T16:23:57.498Z,9.60
2018-11-27T16:26:45.437Z,10.88
2018-11-27T16:29:21.519Z,11.55
2018-11-27T16:31:51.661Z,12.13
2018-11-27T16:34:21.622Z,10.23
2018-11-27T16:36:52.350Z,11.78
2018-11-27T16:39:22.328Z,11.63
2018-11-27T16:41:52.337Z,11.00
2018-11-27T16:44:34.633Z,10.65
2018-11-27T16:47:04.922Z,11.60
2018-11-27T16:49:35.050Z,11.45
2018-11-27T16:55:48.417Z,10.85
2018-11-27T16:58:18.495Z,10.15
2018-11-27T17:01:12.555Z,10.63
2018-11-27T17:04:17.328Z,9.90
2018-11-27T17:06:47.330Z,10.82
2018-11-27T17:09:17.399Z,10.35
2018-11-27T17:11:47.497Z,9.40
2018-11-27T17:14:35.959Z,10.50
2018-11-27T17:17:16.314Z,8.65
2018-11-27T17:19:46.343Z,12.10
2018-11-27T17:22:16.277Z,13.83
2018-11-27T17:25:06.217Z,20.20
2018-11-27T17:30:44.635Z,12.40
2018-11-27T17:33:50.922Z,11.12
2018-11-27T17:36:24.605Z,11.97
2018-11-27T17:38:54.612Z,12.30
2018-11-27T17:41:24.512Z,10.93
2018-11-27T17:44:17.442Z,11.05
2018-11-27T17:46:47.390Z,11.43
2018-11-27T17:49:18.014Z,11.15
2018-11-27T17:51:49.011Z,11.00
2018-11-27T17:54:21.370Z,10.95
2018-11-27T17:56:51.568Z,11.18
2018-11-27T17:59:21.482Z,10.98
2018-11-27T18:01:51.439Z,11.43
2018-11-27T18:04:23.829Z,11.35
2018-11-27T18:06:53.838Z,12.20
2018-11-27T18:09:23.862Z,11.00
2018-11-27T18:11:53.960Z,11.03
2018-11-27T18:14:24.127Z,12.18
2018-11-27T18:16:54.458Z,11.83
2018-11-27T18:19:24.603Z,12.30
2018-11-27T18:21:54.820Z,11.35
2018-11-27T18:24:24.882Z,13.32
2018-11-27T18:26:54.894Z,13.48
2018-11-27T18:29:26.922Z,11.90
2018-11-27T18:31:58.341Z,12.20
2018-11-27T18:34:40.904Z,12.55
2018-11-27T18:37:10.908Z,13.05
2018-11-27T18:39:40.963Z,12.93
2018-11-27T18:42:17.060Z,11.80
2018-11-27T18:44:50.009Z,14.60
2018-11-27T18:47:20.014Z,13.15
2018-11-27T18:49:55.527Z,10.30
2018-11-27T18:52:26.911Z,11.53
2018-11-27T18:54:57.720Z,12.50
2018-11-27T18:57:29.144Z,11.95
2018-11-27T19:13:59.521Z,13.93
2018-11-27T19:16:30.212Z,14.00
2018-11-27T19:19:01.357Z,13.85
2018-11-27T19:21:31.623Z,13.25
2018-11-27T19:24:01.590Z,13.60
2018-11-27T19:26:31.708Z,13.55
2018-11-27T19:29:01.872Z,12.73
2018-11-27T19:31:31.950Z,14.43
2018-11-27T19:34:02.061Z,14.47
2018-11-27T19:36:32.258Z,13.93
2018-11-27T19:39:02.832Z,15.90
2018-11-27T19:41:32.879Z,13.55
2018-11-27T19:44:03.362Z,13.95
2018-11-27T19:49:58.774Z,14.07
2018-11-27T19:52:28.952Z,14.35
2018-11-27T19:54:59.416Z,14.83
2018-11-27T19:57:29.519Z,13.15
2018-11-27T19:59:59.658Z,15.72
2018-11-27T20:02:29.668Z,14.78
2018-11-27T20:04:59.781Z,14.85
2018-11-27T20:07:29.717Z,16.95
2018-11-27T20:10:00.082Z,15.48
2018-11-27T20:12:30.145Z,14.87
2018-11-27T20:15:00.253Z,15.68
2018-11-27T20:17:30.723Z,15.50
2018-11-27T20:20:01.009Z,12.85
2018-11-27T20:22:31.182Z,15.30
2018-11-27T20:25:02.852Z,14.00
2018-11-27T20:27:51.709Z,20.82
2018-11-27T20:30:25.119Z,16.95
2018-11-27T20:33:05.577Z,15.38
2018-11-27T20:35:35.610Z,15.28
2018-11-27T20:38:08.317Z,15.58
2018-11-27T20:40:39.426Z,13.70
2018-11-27T20:43:09.650Z,14.85
2018-11-27T20:45:39.618Z,15.18
2018-11-27T20:48:18.179Z,13.88
2018-11-27T20:50:50.924Z,14.45
2018-11-27T20:53:26.304Z,14.58
2018-11-27T20:55:56.793Z,15.10
2018-11-27T20:58:26.888Z,15.68
2018-11-27T21:00:56.954Z,15.15
2018-11-27T21:03:27.008Z,13.95
2018-11-27T21:05:56.954Z,15.53
2018-11-27T21:08:27.492Z,15.48
2018-11-27T21:10:58.004Z,14.93
2018-11-27T21:13:28.148Z,16.17
2018-11-27T21:15:58.291Z,16.10
2018-11-27T21:18:28.345Z,17.80
2018-11-27T21:20:58.341Z,15.90
2018-11-27T21:23:29.952Z,16.30
2018-11-27T21:26:22.543Z,17.20
2018-11-27T21:28:54.869Z,15.72
2018-11-27T21:31:25.629Z,15.15
2018-11-27T21:33:56.687Z,16.10
2018-11-27T21:36:26.840Z,14.13
2018-11-27T21:38:56.880Z,15.53
2018-11-27T21:41:26.955Z,13.58
2018-11-27T21:43:58.398Z,15.90
2018-11-27T21:46:33.217Z,16.65
2018-11-27T21:49:03.440Z,17.17
2018-11-27T21:51:33.550Z,15.05
2018-11-27T21:54:03.811Z,17.62
2018-11-27T21:56:34.493Z,16.40
2018-11-27T21:59:05.182Z,17.48
2018-11-27T22:01:35.623Z,16.65
2018-11-27T22:04:06.161Z,17.27
2018-11-27T22:06:36.466Z,17.70
2018-11-27T22:09:08.635Z,15.00
2018-11-27T22:11:39.363Z,16.23
2018-11-27T22:14:09.845Z,16.70
2018-11-27T22:16:40.248Z,18.20
2018-11-27T22:19:10.559Z,17.52
2018-11-27T22:21:42.140Z,18.52
2018-11-27T22:24:12.669Z,20.20
2018-11-27T22:26:43.069Z,16.75
2018-11-27T22:29:13.161Z,17.65
2018-11-27T22:31:43.729Z,17.10
2018-11-27T22:34:14.075Z,15.88
2018-11-27T22:36:45.611Z,16.45
2018-11-27T22:39:15.908Z,16.65
2018-11-27T22:41:46.560Z,16.62
2018-11-27T22:44:16.675Z,16.77
2018-11-27T22:46:49.097Z,16.10
2018-11-27T22:49:19.314Z,15.83
2018-11-27T22:51:51.408Z,15.80
2018-11-27T22:54:21.946Z,16.77
2018-11-27T22:56:52.231Z,14.90
2018-11-27T22:59:22.558Z,14.98
2018-11-27T23:01:52.616Z,18.55
2018-11-27T23:04:23.049Z,16.95
2018-11-27T23:06:53.108Z,16.45
2018-11-27T23:09:23.512Z,18.23
2018-11-27T23:11:53.592Z,16.82
2018-11-27T23:14:23.706Z,17.37
2018-11-27T23:16:54.206Z,18.23
2018-11-27T23:19:24.351Z,16.60
2018-11-27T23:21:54.374Z,16.87
2018-11-27T23:24:25.077Z,16.02
2018-11-27T23:26:55.092Z,15.40
2018-11-27T23:29:25.759Z,18.30
2018-11-27T23:31:56.023Z,16.20
2018-11-27T23:34:25.964Z,18.40
2018-11-27T23:36:56.402Z,18.95
2018-11-27T23:39:26.594Z,16.37
2018-11-27T23:41:56.654Z,15.78
2018-11-27T23:44:27.098Z,15.30
2018-11-27T23:46:57.157Z,15.80
2018-11-27T23:49:27.354Z,17.42
2018-11-27T23:51:57.529Z,16.52
2018-11-27T23:54:27.539Z,18.32
2018-11-27T23:56:57.565Z,16.97
2018-11-27T23:59:27.630Z,18.45
